logo
Search for airport 
image banner adimage banner adimage banner ad
image banner ad

LKPS - Plasy

Located in Plasy, Czech Republic

ICAO - LKPS, IATA -

Data provided by Airmate  

General information

Coordinates: N49°55'13" E13°22'37"
Elevation is 1434 feet MSL.
 
View others Airports in Plzen Region

Operational data

Special qualification required
Current time UTC:
Current local time:
Weather at : LKLN - Plzen/Line ( 28 km )
METAR: LKLN 200800Z AUTO 28006KT 240V340 9999 // FEW020 BKN024 OVC045 05/02 Q1010
View NOTAMs / SUP AIP / TFR affecting this airport [VIEW]
Communications frequencies: [VIEW]

Runways:

RWY identifierQFULength (ft)Width (ft)SurfaceLDA (ft)
032756328GRASS
212756328GRASS

Airport contact information

Address: Plasy Czech Republic

Other aviation service providers

Aviation club (not for profit)

Aeroklub Plasy

Aeroklub Plasy
info@akplasy.cz+420373322029

Satellite view of LKPS